createdAt,value
2022-10-16T00:01:25.622Z,8.07
2022-10-16T00:03:53.519Z,8.90
2022-10-16T00:06:22.712Z,9.40
2022-10-16T00:08:50.649Z,9.03
2022-10-16T00:11:23.835Z,9.80
2022-10-16T00:13:53.144Z,8.80
2022-10-16T00:16:21.185Z,9.30
2022-10-16T00:18:48.546Z,7.70
2022-10-16T00:21:22.120Z,5.80
2022-10-16T00:24:09.637Z,7.00
2022-10-16T00:26:38.403Z,6.17
2022-10-16T00:29:06.982Z,5.40
2022-10-16T00:31:35.017Z,8.00
2022-10-16T00:34:02.687Z,5.70
2022-10-16T00:36:30.275Z,7.10
2022-10-16T00:41:34.405Z,8.03
2022-10-16T00:44:23.256Z,5.50
2022-10-16T00:46:51.641Z,6.70
2022-10-16T00:49:20.793Z,7.00
2022-10-16T00:51:51.938Z,6.80
2022-10-16T00:54:25.487Z,6.40
2022-10-16T00:56:55.237Z,5.97
2022-10-16T00:59:41.049Z,5.60
2022-10-16T01:02:13.112Z,5.23
2022-10-16T01:04:47.011Z,6.93
2022-10-16T01:07:38.195Z,5.30
2022-10-16T01:10:20.985Z,6.77
2022-10-16T01:13:01.690Z,3.80
2022-10-16T01:18:31.961Z,3.20
2022-10-16T01:21:06.716Z,4.97
2022-10-16T01:23:57.353Z,3.73
2022-10-16T01:26:31.831Z,3.70
2022-10-16T01:29:28.583Z,5.17
2022-10-16T01:32:02.227Z,4.73
2022-10-16T01:34:36.235Z,3.03
2022-10-16T01:37:08.862Z,4.23
2022-10-16T01:39:40.807Z,5.00
2022-10-16T01:42:17.927Z,3.00
2022-10-16T01:44:48.526Z,4.03
2022-10-16T01:47:17.953Z,4.90
2022-10-16T01:49:47.430Z,4.70
2022-10-16T01:52:20.669Z,3.83
2022-10-16T01:54:50.595Z,4.13
2022-10-16T01:57:19.752Z,3.73
2022-10-16T01:59:55.901Z,4.43
2022-10-16T02:02:27.863Z,4.23
2022-10-16T02:05:27.966Z,2.10
2022-10-16T02:07:55.823Z,3.43
2022-10-16T02:10:26.021Z,4.60
2022-10-16T02:13:06.371Z,6.27
2022-10-16T02:15:33.854Z,2.20
2022-10-16T02:18:02.208Z,2.67
2022-10-16T02:20:37.729Z,3.13
2022-10-16T02:23:05.277Z,3.07
2022-10-16T02:25:38.012Z,4.97
2022-10-16T02:28:17.803Z,3.47
2022-10-16T02:30:58.119Z,2.93
2022-10-16T02:33:27.887Z,3.37
2022-10-16T02:35:56.641Z,2.13
2022-10-16T02:38:25.734Z,3.33
2022-10-16T02:40:53.609Z,7.33
2022-10-16T02:43:21.063Z,1.77
2022-10-16T02:45:48.404Z,2.93
2022-10-16T02:48:15.981Z,5.83
2022-10-16T02:50:43.293Z,3.30
2022-10-16T02:53:10.586Z,3.17
2022-10-16T02:55:38.497Z,3.93
2022-10-16T02:58:07.197Z,3.30
2022-10-16T03:00:34.652Z,3.97
2022-10-16T03:03:02.456Z,2.93
2022-10-16T03:05:31.068Z,4.80
2022-10-16T03:08:01.195Z,2.40
2022-10-16T03:10:28.688Z,3.10
2022-10-16T03:12:56.038Z,4.97
2022-10-16T03:15:23.379Z,2.33
2022-10-16T03:17:50.726Z,2.20
2022-10-16T03:20:18.013Z,4.07
2022-10-16T03:22:46.127Z,3.20
2022-10-16T03:25:13.852Z,4.23
2022-10-16T03:27:41.838Z,3.30
2022-10-16T03:30:09.997Z,3.93
2022-10-16T03:32:37.326Z,6.03
2022-10-16T03:35:05.021Z,2.50
2022-10-16T03:37:32.721Z,3.70
2022-10-16T03:40:00.277Z,2.13
2022-10-16T03:42:27.718Z,3.20
2022-10-16T03:44:55.023Z,3.60
2022-10-16T03:47:24.387Z,4.93
2022-10-16T03:49:52.007Z,2.93
2022-10-16T03:54:51.540Z,4.37
2022-10-16T03:57:18.955Z,3.53
2022-10-16T03:59:46.286Z,2.80
2022-10-16T04:02:14.426Z,4.10
2022-10-16T04:04:41.730Z,6.73
2022-10-16T04:07:11.741Z,2.53
2022-10-16T04:09:39.071Z,3.17
2022-10-16T04:12:06.845Z,3.60
2022-10-16T04:14:34.277Z,3.90
2022-10-16T04:17:02.446Z,3.67
2022-10-16T04:19:29.747Z,5.70
2022-10-16T04:21:57.343Z,5.13
2022-10-16T04:24:24.646Z,2.10
2022-10-16T04:26:51.913Z,5.53
2022-10-16T04:29:19.291Z,2.37
2022-10-16T04:31:47.870Z,6.47
2022-10-16T04:34:15.727Z,6.17
2022-10-16T04:36:43.059Z,6.33
2022-10-16T04:39:10.442Z,3.23
2022-10-16T04:41:38.017Z,4.03
2022-10-16T04:44:06.082Z,4.83
2022-10-16T04:46:33.461Z,5.23
2022-10-16T04:49:01.411Z,3.77
2022-10-16T04:51:29.072Z,3.63
2022-10-16T04:53:56.424Z,4.07
2022-10-16T04:56:24.039Z,5.00
2022-10-16T04:58:51.884Z,6.13
2022-10-16T05:01:19.224Z,6.83
2022-10-16T05:03:46.869Z,4.33
2022-10-16T05:06:14.641Z,5.00
2022-10-16T05:08:42.067Z,5.57
2022-10-16T05:11:09.493Z,5.93
2022-10-16T05:13:36.816Z,4.43
2022-10-16T05:16:04.342Z,5.83
2022-10-16T05:18:31.691Z,9.60
2022-10-16T05:20:59.297Z,5.33
2022-10-16T05:23:26.606Z,4.90
2022-10-16T05:25:55.695Z,6.90
2022-10-16T05:28:23.355Z,5.00
2022-10-16T05:30:50.793Z,5.80
2022-10-16T05:33:18.738Z,8.23
2022-10-16T05:35:46.121Z,6.50
2022-10-16T05:38:13.459Z,6.03
2022-10-16T05:40:40.840Z,5.37
2022-10-16T05:43:08.170Z,5.57
2022-10-16T05:45:35.617Z,6.13
2022-10-16T05:48:03.010Z,5.50
2022-10-16T05:50:30.788Z,7.40
2022-10-16T05:52:58.101Z,5.43
2022-10-16T05:55:26.602Z,10.00
2022-10-16T05:57:55.925Z,6.13
2022-10-16T06:00:23.206Z,5.70
2022-10-16T06:02:51.251Z,7.10
2022-10-16T06:05:18.561Z,5.63
2022-10-16T06:07:45.918Z,5.77
2022-10-16T06:10:13.263Z,5.57
2022-10-16T06:12:40.575Z,7.90
2022-10-16T06:15:08.318Z,5.87
2022-10-16T06:17:36.195Z,7.50
2022-10-16T06:20:04.234Z,4.93
2022-10-16T06:22:32.585Z,5.07
2022-10-16T06:25:00.485Z,11.40
2022-10-16T06:27:28.183Z,6.57
2022-10-16T06:29:56.185Z,5.20
2022-10-16T06:32:23.505Z,4.03
2022-10-16T06:34:50.861Z,4.80
2022-10-16T06:37:18.161Z,6.03
2022-10-16T06:39:46.059Z,7.13
2022-10-16T06:42:13.370Z,6.90
2022-10-16T06:44:42.112Z,6.83
2022-10-16T06:47:09.398Z,6.50
2022-10-16T06:49:36.766Z,7.40
2022-10-16T06:52:04.299Z,8.77
2022-10-16T06:54:36.470Z,5.37
2022-10-16T06:57:09.754Z,5.83
2022-10-16T06:59:37.020Z,7.07
2022-10-16T07:02:04.489Z,6.53
2022-10-16T07:04:32.413Z,5.43
2022-10-16T07:07:02.496Z,4.90
2022-10-16T07:09:31.989Z,6.63
2022-10-16T07:11:59.715Z,5.30
2022-10-16T07:14:27.046Z,7.30
2022-10-16T07:16:54.807Z,6.23
2022-10-16T07:19:22.374Z,7.07
2022-10-16T07:21:50.381Z,7.70
2022-10-16T07:24:18.409Z,5.20
2022-10-16T07:26:47.520Z,5.30
2022-10-16T07:29:20.801Z,5.90
2022-10-16T07:31:49.418Z,4.03
2022-10-16T07:34:19.185Z,6.23
2022-10-16T07:36:50.482Z,3.57
2022-10-16T07:39:19.275Z,4.63
2022-10-16T07:41:47.230Z,3.73
2022-10-16T07:44:14.513Z,6.23
2022-10-16T07:46:42.278Z,4.67
2022-10-16T07:49:09.893Z,3.77
2022-10-16T07:51:39.173Z,6.20
2022-10-16T07:54:06.546Z,4.30
2022-10-16T07:56:33.888Z,4.23
2022-10-16T07:59:01.213Z,4.90
2022-10-16T08:01:28.708Z,5.33
2022-10-16T08:03:56.334Z,6.80
2022-10-16T08:06:27.612Z,4.03
2022-10-16T08:08:57.196Z,3.50
2022-10-16T08:11:25.141Z,6.33
2022-10-16T08:13:52.554Z,6.07
2022-10-16T08:16:19.930Z,4.80
2022-10-16T08:18:48.615Z,6.23
2022-10-16T08:21:20.304Z,3.20
2022-10-16T08:23:54.700Z,4.07
2022-10-16T08:26:27.428Z,3.83
2022-10-16T08:28:55.492Z,4.00
2022-10-16T08:31:23.383Z,3.80
2022-10-16T08:33:52.258Z,3.30
2022-10-16T08:36:19.779Z,3.50
2022-10-16T08:38:51.612Z,3.50
2022-10-16T08:41:51.077Z,3.10
2022-10-16T08:44:33.705Z,3.30
2022-10-16T08:47:06.982Z,3.00
2022-10-16T08:50:02.607Z,2.53
2022-10-16T08:52:34.755Z,2.53
2022-10-16T08:55:02.907Z,2.40
2022-10-16T08:57:32.464Z,5.17
2022-10-16T09:00:10.219Z,4.03
2022-10-16T09:03:07.211Z,3.17
2022-10-16T09:05:44.999Z,2.47
2022-10-16T09:08:13.523Z,3.83
2022-10-16T09:11:09.142Z,2.50
2022-10-16T09:14:01.176Z,2.47
2022-10-16T09:16:34.893Z,2.00
2022-10-16T09:19:10.490Z,2.70
2022-10-16T09:21:45.441Z,3.90
2022-10-16T09:24:25.547Z,2.50
2022-10-16T09:26:54.535Z,2.77
2022-10-16T09:29:24.454Z,1.53
2022-10-16T09:31:54.001Z,2.70
2022-10-16T09:34:33.889Z,1.40
2022-10-16T09:37:05.083Z,2.30
2022-10-16T09:39:49.009Z,2.27
2022-10-16T09:42:22.335Z,2.43
2022-10-16T09:44:51.873Z,3.00
2022-10-16T09:47:21.392Z,1.77
2022-10-16T09:50:22.671Z,3.20
2022-10-16T09:52:50.837Z,2.40
2022-10-16T09:55:19.431Z,3.57
2022-10-16T09:57:54.268Z,2.90
2022-10-16T10:00:23.853Z,3.97
2022-10-16T10:02:53.173Z,2.00
2022-10-16T10:05:27.999Z,2.17
2022-10-16T10:08:07.181Z,2.67
2022-10-16T10:10:41.957Z,1.63
2022-10-16T10:13:25.147Z,2.50
2022-10-16T10:15:53.800Z,2.30
2022-10-16T10:18:24.774Z,2.73
2022-10-16T10:21:01.104Z,2.10
2022-10-16T10:23:30.986Z,2.03
2022-10-16T10:26:16.429Z,2.53
2022-10-16T10:29:21.602Z,2.97
2022-10-16T10:32:05.598Z,2.30
2022-10-16T10:34:36.737Z,3.93
2022-10-16T10:37:45.723Z,3.27
2022-10-16T10:40:32.436Z,3.13
2022-10-16T10:43:30.991Z,3.07
2022-10-16T10:46:05.908Z,2.20
2022-10-16T10:48:36.875Z,4.80
2022-10-16T10:51:13.883Z,4.63
2022-10-16T10:54:04.145Z,2.47
2022-10-16T10:56:58.360Z,3.20
2022-10-16T11:00:06.031Z,2.13
2022-10-16T11:02:42.562Z,2.40
2022-10-16T11:05:41.753Z,2.37
2022-10-16T11:08:21.458Z,2.67
2022-10-16T11:10:58.614Z,3.73
2022-10-16T11:13:35.176Z,1.23
2022-10-16T11:16:25.247Z,3.50
2022-10-16T11:19:27.808Z,3.40
2022-10-16T11:22:26.237Z,2.10
2022-10-16T11:25:09.720Z,5.60
2022-10-16T11:27:50.271Z,3.40
2022-10-16T11:30:23.489Z,2.80
2022-10-16T11:33:09.715Z,1.63
2022-10-16T11:35:47.834Z,3.20
2022-10-16T11:38:50.410Z,2.80
2022-10-16T11:41:46.102Z,3.97
2022-10-16T11:44:48.515Z,2.10
2022-10-16T11:48:00.405Z,1.80
2022-10-16T11:50:53.510Z,2.33
2022-10-16T11:53:36.123Z,1.40
2022-10-16T11:56:05.448Z,3.20
2022-10-16T11:58:47.615Z,2.20
2022-10-16T12:01:31.231Z,2.83
2022-10-16T12:04:31.923Z,6.07
2022-10-16T12:07:29.453Z,4.40
2022-10-16T12:10:01.513Z,1.63
2022-10-16T12:12:36.862Z,3.00
2022-10-16T12:15:54.158Z,2.97
2022-10-16T12:18:24.629Z,2.63
2022-10-16T12:21:00.917Z,5.00
2022-10-16T12:23:28.517Z,4.40
2022-10-16T12:25:58.244Z,3.63
2022-10-16T12:28:31.307Z,3.97
2022-10-16T12:31:02.601Z,3.87
2022-10-16T12:33:40.906Z,2.60
2022-10-16T12:36:27.595Z,2.97
2022-10-16T12:38:55.374Z,2.80
2022-10-16T12:41:28.859Z,1.53
2022-10-16T12:43:57.922Z,2.50
2022-10-16T12:46:31.341Z,2.00
2022-10-16T12:49:15.007Z,4.63
2022-10-16T12:51:44.259Z,3.43
2022-10-16T12:54:16.713Z,2.33
2022-10-16T12:56:59.609Z,2.00
2022-10-16T13:00:14.704Z,2.50
2022-10-16T13:03:04.660Z,4.05
2022-10-16T13:05:53.706Z,4.83
2022-10-16T13:08:53.330Z,1.57
2022-10-16T13:11:39.673Z,1.83
2022-10-16T13:14:22.605Z,2.47
2022-10-16T13:17:04.013Z,3.97
2022-10-16T13:19:51.506Z,2.53
2022-10-16T13:22:39.481Z,5.00
2022-10-16T13:25:24.808Z,1.53
2022-10-16T13:28:08.223Z,6.63
2022-10-16T13:30:43.123Z,3.03
2022-10-16T13:33:15.477Z,4.67
2022-10-16T13:35:55.772Z,1.60
2022-10-16T13:38:26.545Z,2.00
2022-10-16T13:41:04.331Z,1.97
2022-10-16T13:43:38.437Z,4.07
2022-10-16T13:46:14.658Z,2.93
2022-10-16T13:48:42.934Z,3.40
2022-10-16T13:51:19.359Z,3.87
2022-10-16T13:53:47.442Z,5.33
2022-10-16T13:56:18.210Z,2.03
2022-10-16T13:58:46.395Z,3.20
2022-10-16T14:01:28.559Z,1.83
2022-10-16T14:04:09.588Z,3.50
2022-10-16T14:06:42.595Z,3.50
2022-10-16T14:09:28.992Z,2.23
2022-10-16T14:12:09.325Z,3.50
2022-10-16T14:14:43.626Z,2.40
2022-10-16T14:17:21.798Z,2.10
2022-10-16T14:19:55.425Z,5.10
2022-10-16T14:22:39.233Z,3.30
2022-10-16T14:25:31.335Z,2.23
2022-10-16T14:28:25.281Z,3.47
2022-10-16T14:30:59.520Z,3.20
2022-10-16T14:33:30.579Z,3.70
2022-10-16T14:36:14.103Z,4.60
2022-10-16T14:38:58.741Z,4.00
2022-10-16T14:41:26.369Z,2.57
2022-10-16T14:44:02.635Z,2.70
2022-10-16T14:46:37.590Z,3.13
2022-10-16T14:49:21.484Z,3.00
2022-10-16T14:51:49.959Z,4.20
2022-10-16T14:54:19.108Z,4.97
2022-10-16T14:56:51.143Z,5.03
2022-10-16T14:59:24.113Z,4.07
2022-10-16T15:01:52.585Z,3.37
2022-10-16T15:04:20.251Z,3.37
2022-10-16T15:06:48.203Z,3.40
2022-10-16T15:09:15.696Z,2.40
2022-10-16T15:11:44.303Z,3.40
2022-10-16T15:16:43.039Z,3.27
2022-10-16T15:19:10.917Z,2.43
2022-10-16T15:21:38.507Z,4.00
2022-10-16T15:24:17.805Z,2.87
2022-10-16T15:26:49.806Z,2.33
2022-10-16T15:29:17.340Z,4.33
2022-10-16T15:31:46.649Z,5.60
2022-10-16T15:34:15.014Z,3.57
2022-10-16T15:36:42.998Z,4.83
2022-10-16T15:39:17.657Z,2.30
2022-10-16T15:41:52.228Z,6.30
2022-10-16T15:44:21.286Z,2.80
2022-10-16T15:46:49.729Z,3.97
2022-10-16T15:49:17.743Z,2.10
2022-10-16T15:51:45.445Z,4.53
2022-10-16T15:54:13.052Z,2.40
2022-10-16T15:56:40.723Z,7.20
2022-10-16T15:59:09.350Z,4.40
2022-10-16T16:01:37.826Z,4.20
2022-10-16T16:04:11.147Z,4.40
2022-10-16T16:07:13.912Z,8.33
2022-10-16T16:09:41.575Z,3.23
2022-10-16T16:12:09.745Z,6.07
2022-10-16T16:14:38.772Z,2.53
2022-10-16T16:17:06.547Z,5.63
2022-10-16T16:19:34.474Z,7.77
2022-10-16T16:22:02.693Z,5.13
2022-10-16T16:24:32.115Z,2.57
2022-10-16T16:27:00.055Z,3.40
2022-10-16T16:29:27.907Z,4.60
2022-10-16T16:31:58.308Z,4.43
2022-10-16T16:34:28.304Z,3.63
2022-10-16T16:36:56.830Z,5.10
2022-10-16T16:39:24.564Z,4.73
2022-10-16T16:41:52.750Z,5.13
2022-10-16T16:44:20.459Z,6.37
2022-10-16T16:46:48.085Z,4.77
2022-10-16T16:49:16.476Z,6.17
2022-10-16T16:51:44.238Z,5.50
2022-10-16T16:54:14.379Z,4.40
2022-10-16T16:56:45.917Z,5.43
2022-10-16T16:59:16.108Z,6.80
2022-10-16T17:01:45.362Z,14.37
2022-10-16T17:04:14.376Z,12.03
2022-10-16T17:06:42.376Z,19.50
2022-10-16T17:09:16.345Z,15.50
2022-10-16T17:11:45.560Z,16.80
2022-10-16T17:14:13.215Z,16.47
2022-10-16T17:16:44.759Z,14.30
2022-10-16T17:19:17.775Z,9.60
2022-10-16T17:21:45.645Z,7.07
2022-10-16T17:24:13.218Z,11.20
2022-10-16T17:26:44.407Z,9.00
2022-10-16T17:29:13.083Z,8.70
2022-10-16T17:31:42.199Z,6.00
2022-10-16T17:34:10.649Z,6.80
2022-10-16T17:36:39.354Z,7.17
2022-10-16T17:39:09.340Z,7.57
2022-10-16T17:41:37.220Z,7.13
2022-10-16T17:44:07.742Z,8.53
2022-10-16T17:46:39.992Z,7.53
2022-10-16T17:49:09.704Z,7.77
2022-10-16T17:51:37.476Z,6.67
2022-10-16T17:54:05.222Z,6.00
2022-10-16T17:56:33.631Z,7.20
2022-10-16T17:59:02.140Z,6.03
2022-10-16T18:01:32.317Z,10.50
2022-10-16T18:04:04.623Z,6.60
2022-10-16T18:06:33.896Z,6.43
2022-10-16T18:09:01.958Z,8.80
2022-10-16T18:11:29.695Z,6.30
2022-10-16T18:13:59.101Z,6.23
2022-10-16T18:16:30.282Z,5.80
2022-10-16T18:18:58.195Z,5.37
2022-10-16T18:21:29.683Z,10.90
2022-10-16T18:23:59.123Z,10.30
2022-10-16T18:26:27.365Z,8.80
2022-10-16T18:28:56.690Z,5.53
2022-10-16T18:31:28.357Z,4.17
2022-10-16T18:33:56.063Z,12.07
2022-10-16T18:36:32.394Z,6.23
2022-10-16T18:39:01.647Z,7.53
2022-10-16T18:41:29.883Z,7.33
2022-10-16T18:43:57.892Z,5.50
2022-10-16T18:46:26.487Z,6.27
2022-10-16T18:48:57.958Z,6.47
2022-10-16T18:51:28.872Z,8.93
2022-10-16T18:54:00.087Z,5.73
2022-10-16T18:56:30.897Z,5.63
2022-10-16T18:59:04.200Z,5.00
2022-10-16T19:01:33.787Z,8.47
2022-10-16T19:04:13.779Z,6.30
2022-10-16T19:06:46.679Z,6.97
2022-10-16T19:09:16.733Z,6.30
2022-10-16T19:11:44.849Z,4.60
2022-10-16T19:14:13.235Z,5.60
2022-10-16T19:16:43.093Z,5.63
2022-10-16T19:19:15.216Z,6.27
2022-10-16T19:21:43.451Z,7.73
2022-10-16T19:24:13.924Z,8.63
2022-10-16T19:26:42.385Z,4.23
2022-10-16T19:29:10.911Z,9.63
2022-10-16T19:31:38.523Z,5.70
2022-10-16T19:34:07.389Z,3.50
2022-10-16T19:36:36.749Z,5.63
2022-10-16T19:39:07.470Z,5.57
2022-10-16T19:41:37.052Z,6.00
2022-10-16T19:44:06.877Z,6.13
2022-10-16T19:46:35.214Z,5.07
2022-10-16T19:49:06.560Z,6.20
2022-10-16T19:51:34.344Z,4.23
2022-10-16T19:54:06.617Z,6.77
2022-10-16T19:56:35.213Z,4.33
2022-10-16T19:59:04.434Z,4.17
2022-10-16T20:01:32.750Z,7.07
2022-10-16T20:04:00.251Z,4.67
2022-10-16T20:06:27.814Z,4.13
2022-10-16T20:08:58.052Z,4.37
2022-10-16T20:11:28.395Z,8.60
2022-10-16T20:13:56.167Z,8.43
2022-10-16T20:16:24.234Z,5.33
2022-10-16T20:18:52.645Z,8.13
2022-10-16T20:21:23.819Z,5.90
2022-10-16T20:23:51.670Z,6.90
2022-10-16T20:26:22.149Z,7.77
2022-10-16T20:28:49.749Z,8.43
2022-10-16T20:31:22.618Z,3.50
2022-10-16T20:33:51.278Z,3.53
2022-10-16T20:36:20.701Z,3.43
2022-10-16T20:38:48.258Z,6.17
2022-10-16T20:41:17.386Z,4.60
2022-10-16T20:43:46.565Z,7.83
2022-10-16T20:46:17.097Z,6.33
2022-10-16T20:48:46.965Z,4.83
2022-10-16T20:51:22.194Z,6.53
2022-10-16T20:54:00.022Z,6.17
2022-10-16T20:56:28.791Z,5.73
2022-10-16T20:58:56.323Z,6.57
2022-10-16T21:01:25.685Z,7.57
2022-10-16T21:03:58.959Z,9.57
2022-10-16T21:06:26.846Z,5.20
2022-10-16T21:08:54.471Z,5.87
2022-10-16T21:11:24.920Z,8.27
2022-10-16T21:13:54.309Z,6.57
2022-10-16T21:16:23.791Z,8.90
2022-10-16T21:18:53.042Z,5.33
2022-10-16T21:21:30.033Z,5.10
2022-10-16T21:23:58.949Z,5.70
2022-10-16T21:26:27.411Z,5.00
2022-10-16T21:29:00.334Z,11.20
2022-10-16T21:31:28.546Z,7.50
2022-10-16T21:33:56.522Z,11.77
2022-10-16T21:36:32.703Z,7.90
2022-10-16T21:39:02.130Z,6.60
2022-10-16T21:41:30.793Z,7.57
2022-10-16T21:44:00.170Z,6.63
2022-10-16T21:46:31.762Z,7.30
2022-10-16T21:49:01.200Z,5.93
2022-10-16T21:51:37.973Z,4.73
2022-10-16T21:54:07.746Z,5.73
2022-10-16T21:56:35.743Z,5.43
2022-10-16T21:59:03.645Z,5.17
2022-10-16T22:01:32.826Z,5.93
2022-10-16T22:04:00.543Z,7.90
2022-10-16T22:06:29.017Z,3.40
2022-10-16T22:09:01.720Z,6.63
2022-10-16T22:11:37.779Z,3.80
2022-10-16T22:14:16.512Z,4.93
2022-10-16T22:16:44.593Z,6.07
2022-10-16T22:19:14.427Z,8.03
2022-10-16T22:21:45.469Z,4.80
2022-10-16T22:24:13.890Z,5.17
2022-10-16T22:26:41.292Z,7.00
2022-10-16T22:29:11.031Z,4.23
2022-10-16T22:31:38.488Z,7.73
2022-10-16T22:34:06.363Z,5.00
2022-10-16T22:36:33.961Z,4.77
2022-10-16T22:39:01.881Z,5.67
2022-10-16T22:41:29.626Z,6.20
2022-10-16T22:43:57.005Z,4.83
2022-10-16T22:46:27.685Z,5.60
2022-10-16T22:48:56.077Z,4.90
2022-10-16T22:51:25.271Z,7.90
2022-10-16T22:53:52.590Z,5.13
2022-10-16T22:56:21.302Z,7.93
2022-10-16T22:58:49.049Z,8.87
2022-10-16T23:01:21.468Z,7.07
2022-10-16T23:03:48.854Z,5.27
2022-10-16T23:06:17.213Z,9.50
2022-10-16T23:08:44.534Z,5.97
2022-10-16T23:11:13.074Z,4.80
2022-10-16T23:13:45.649Z,7.43
2022-10-16T23:16:15.718Z,7.43
2022-10-16T23:18:44.644Z,13.97
2022-10-16T23:21:22.524Z,10.93
2022-10-16T23:23:52.353Z,14.93
2022-10-16T23:26:22.273Z,7.70
2022-10-16T23:28:50.228Z,7.77
2022-10-16T23:31:18.788Z,5.47
2022-10-16T23:33:46.206Z,11.40
2022-10-16T23:36:19.616Z,9.17
2022-10-16T23:38:48.201Z,7.43
2022-10-16T23:41:17.209Z,10.80
2022-10-16T23:43:44.775Z,8.73
2022-10-16T23:46:12.873Z,6.73
2022-10-16T23:48:40.671Z,7.73
2022-10-16T23:51:09.107Z,7.23
2022-10-16T23:53:36.812Z,8.20
2022-10-16T23:56:04.602Z,9.60
2022-10-16T23:58:31.932Z,8.20
